createdAt,value
2023-03-23T15:58:25.670Z,9.60
2023-03-23T16:00:57.771Z,13.10
2023-03-23T16:03:34.832Z,12.20
2023-03-23T16:06:07.157Z,10.80
2023-03-23T16:08:41.102Z,11.90
2023-03-23T16:11:13.147Z,13.10
2023-03-23T16:13:44.808Z,12.50
2023-03-23T16:16:23.489Z,11.10
2023-03-23T16:18:54.877Z,10.60
2023-03-23T16:21:26.758Z,9.30
2023-03-23T16:23:58.600Z,11.90
2023-03-23T16:26:30.068Z,8.90
2023-03-23T16:29:12.979Z,10.10
2023-03-23T16:31:46.244Z,9.10
2023-03-23T16:34:17.388Z,10.50
2023-03-23T16:36:48.745Z,9.70
2023-03-23T16:39:20.447Z,8.00
2023-03-23T16:41:51.597Z,9.90
2023-03-23T16:44:23.085Z,9.30
2023-03-23T16:46:54.232Z,9.40
2023-03-23T16:49:25.769Z,9.00
2023-03-23T16:51:56.743Z,9.70
2023-03-23T16:54:28.952Z,7.70
2023-03-23T16:57:00.972Z,9.50
2023-03-23T16:59:35.065Z,7.50
2023-03-23T17:02:08.336Z,8.40
2023-03-23T17:04:43.794Z,7.50
2023-03-23T17:07:15.565Z,8.30
2023-03-23T17:09:48.215Z,7.60
2023-03-23T17:12:20.197Z,8.60
2023-03-23T17:14:51.753Z,8.30
2023-03-23T17:17:24.797Z,7.70
2023-03-23T17:19:56.521Z,11.80
2023-03-23T17:22:28.877Z,9.00
2023-03-23T17:25:00.306Z,6.90
2023-03-23T17:27:31.370Z,8.10
2023-03-23T17:30:02.627Z,9.00
2023-03-23T17:32:36.721Z,6.20
2023-03-23T17:35:10.153Z,8.70
2023-03-23T17:37:41.795Z,11.10
2023-03-23T17:40:14.762Z,11.60
2023-03-23T17:42:46.728Z,12.20
2023-03-23T17:45:18.762Z,13.30
2023-03-23T17:47:50.124Z,12.80
2023-03-23T17:50:22.015Z,13.60
2023-03-23T17:52:52.914Z,10.10
2023-03-23T17:55:25.321Z,12.10
2023-03-23T17:57:58.405Z,13.40
2023-03-23T18:00:29.817Z,12.60
2023-03-23T18:03:01.610Z,14.50
2023-03-23T18:05:33.038Z,19.40
2023-03-23T18:08:04.750Z,14.00
2023-03-23T18:10:37.553Z,16.10
2023-03-23T18:13:09.918Z,14.30
2023-03-23T18:15:46.765Z,17.20
2023-03-23T18:18:18.106Z,16.90
2023-03-23T18:20:49.584Z,15.10
2023-03-23T18:23:20.538Z,15.60
2023-03-23T18:25:53.830Z,17.50
2023-03-23T18:28:25.402Z,15.40
2023-03-23T18:30:56.808Z,13.90
2023-03-23T18:33:27.977Z,14.00
2023-03-23T18:36:01.986Z,17.40
2023-03-23T18:38:34.139Z,15.00
2023-03-23T18:41:10.714Z,12.50
2023-03-23T18:43:44.790Z,11.20
2023-03-23T18:46:16.653Z,13.30
2023-03-23T18:48:49.433Z,12.10
2023-03-23T18:51:20.755Z,13.40
2023-03-23T18:53:52.049Z,13.90
2023-03-23T18:56:23.473Z,13.70
2023-03-23T18:58:55.418Z,13.10
2023-03-23T19:01:26.750Z,14.00
2023-03-23T19:03:57.910Z,14.80
2023-03-23T19:06:31.938Z,13.20
2023-03-23T19:09:05.187Z,14.80
2023-03-23T19:11:36.239Z,12.70
2023-03-23T19:14:07.480Z,13.70
2023-03-23T19:16:39.382Z,14.30
2023-03-23T19:19:11.079Z,14.90
2023-03-23T19:21:47.009Z,13.10
2023-03-23T19:24:18.879Z,13.00
2023-03-23T19:26:50.400Z,14.60
2023-03-23T19:31:56.703Z,14.70
2023-03-23T19:34:30.750Z,11.10
2023-03-23T19:37:05.973Z,11.60
2023-03-23T19:39:42.949Z,11.10
2023-03-23T19:42:18.584Z,13.40
2023-03-23T19:44:49.655Z,10.40
2023-03-23T19:47:21.699Z,13.10
2023-03-23T19:49:53.532Z,11.40
2023-03-23T19:52:24.584Z,13.40
2023-03-23T19:54:56.094Z,14.20
2023-03-23T19:57:27.822Z,14.70
2023-03-23T19:59:59.324Z,17.00
2023-03-23T20:02:30.524Z,16.50
2023-03-23T20:05:01.821Z,14.70
2023-03-23T20:07:32.790Z,15.10
2023-03-23T20:10:03.972Z,14.50
2023-03-23T20:12:35.507Z,12.60
2023-03-23T20:15:10.298Z,12.80
2023-03-23T20:17:42.140Z,12.80
2023-03-23T20:20:15.581Z,14.20
2023-03-23T20:22:48.082Z,11.20
2023-03-23T20:25:22.648Z,11.00
2023-03-23T20:27:55.128Z,11.80
2023-03-23T20:30:29.647Z,14.50
2023-03-23T20:33:01.875Z,13.10
2023-03-23T20:35:33.753Z,12.30
2023-03-23T20:38:05.779Z,12.50
2023-03-23T20:40:38.617Z,14.00
2023-03-23T20:43:11.051Z,13.80
2023-03-23T20:45:43.464Z,13.00
2023-03-23T20:48:15.939Z,13.40
2023-03-23T20:50:50.644Z,10.40
2023-03-23T20:53:21.692Z,10.30
2023-03-23T20:55:53.586Z,12.20
2023-03-23T20:58:27.932Z,11.20
2023-03-23T21:01:01.493Z,11.90
2023-03-23T21:03:35.536Z,11.00
2023-03-23T21:06:10.502Z,11.90
2023-03-23T21:08:42.643Z,12.30
2023-03-23T21:11:18.772Z,11.20
2023-03-23T21:13:50.994Z,11.10
2023-03-23T21:16:23.794Z,10.30
2023-03-23T21:18:56.145Z,11.20
2023-03-23T21:21:28.406Z,12.10
2023-03-23T21:23:59.562Z,10.80
2023-03-23T21:26:32.279Z,10.00
2023-03-23T21:29:04.370Z,11.40
2023-03-23T21:31:36.460Z,10.40
2023-03-23T21:34:08.496Z,11.70
2023-03-23T21:36:40.282Z,11.10
2023-03-23T21:39:12.761Z,11.00
2023-03-23T21:41:45.133Z,12.10
2023-03-23T21:44:16.488Z,10.40
2023-03-23T21:46:48.335Z,11.20
2023-03-23T21:49:19.720Z,12.20
2023-03-23T21:51:52.550Z,12.10
2023-03-23T21:54:24.066Z,12.40
2023-03-23T21:56:56.506Z,12.70
2023-03-23T21:59:28.543Z,13.80
2023-03-23T22:02:02.811Z,12.10
2023-03-23T22:04:36.316Z,12.40
2023-03-23T22:07:08.663Z,10.90
2023-03-23T22:09:41.219Z,14.00
2023-03-23T22:12:14.335Z,9.80
2023-03-23T22:14:47.088Z,13.10
2023-03-23T22:17:19.970Z,12.10
2023-03-23T22:19:53.380Z,12.20
2023-03-23T22:22:25.742Z,10.90
2023-03-23T22:24:57.372Z,12.30
2023-03-23T22:27:28.748Z,11.60
2023-03-23T22:30:00.329Z,10.90
2023-03-23T22:32:32.226Z,12.40
2023-03-23T22:35:07.230Z,13.00
2023-03-23T22:37:38.913Z,12.40
2023-03-23T22:40:11.668Z,12.60
2023-03-23T22:42:43.353Z,11.70
2023-03-23T22:45:15.023Z,10.70
2023-03-23T22:47:46.811Z,11.50
2023-03-23T22:50:18.983Z,12.30
2023-03-23T22:52:50.508Z,11.20
2023-03-23T22:55:22.061Z,12.70
2023-03-23T22:57:53.441Z,11.40
2023-03-23T23:00:25.632Z,11.70
2023-03-23T23:02:57.243Z,12.10
2023-03-23T23:05:28.802Z,9.80
2023-03-23T23:08:01.093Z,11.90
2023-03-23T23:10:35.642Z,11.10
2023-03-23T23:13:07.042Z,10.40
2023-03-23T23:15:39.301Z,15.10
2023-03-23T23:18:12.605Z,10.50
2023-03-23T23:20:44.873Z,12.10
2023-03-23T23:23:16.715Z,12.00
2023-03-23T23:25:48.702Z,11.50
2023-03-23T23:28:22.853Z,11.40
2023-03-23T23:30:55.568Z,12.20
2023-03-23T23:33:27.299Z,12.40
2023-03-23T23:35:58.637Z,12.30
2023-03-23T23:38:30.787Z,11.70
2023-03-23T23:41:01.809Z,14.30
2023-03-23T23:43:33.234Z,12.20
2023-03-23T23:46:05.165Z,10.70
2023-03-23T23:48:36.866Z,13.00
2023-03-23T23:51:09.826Z,12.90
2023-03-23T23:53:42.591Z,12.50
2023-03-23T23:56:15.869Z,14.40
2023-03-23T23:58:48.362Z,12.30
